PWSweather.com
Personal Weather Stations
Station Observations
AC5CV
Greenleaf Peninsula, Waco, TX 76710

Greenleaf PeninsulaWaco, TX 76710

Lat: 31.565, Lon: -97.198

Elevation: 570

Station Type: Ambient WS2080

http://johnchamber.dyndns.info/

High Low Average
Temperature 100.6°F38.1°C 77.2°F25.1°C 89.1°F31.7°C
Dew Point 70.7°F21.5°C 57.6°F14.2°C 64.5°F18.1°C
Winds 8.2 mph 13.2 kmh Calm Calm 3.0 mph S4.8 kmh S
Wind Gusts 15.0 mph24.1 kmh -- 6.0 mph9.7 kmh
Humidity 74% 25% 47%
Pressure 29.43 in996.6 mb 29.29 in991.9 mb -
Precipitation 0.00 in0.0 mm - -
Hour Temp Dew Point Humidity Winds Wind Gusts Pressure Precip Precip Rate Daily Precip Total
12:00 AM 87.6°F30.9°C 66.1°F18.9°C 49% 7.6 mph SSE12.2 kmh SSE 17.4 mph28.0 kmh 29.38 in994.9 mb 0.00 in0.0 mm 0.00 in0.0 mm 0.00 in0.0 mm
12:05 AM 87.6°F30.9°C 67.0°F19.4°C 51% 8.1 mph SE13.0 kmh SE 15.0 mph24.1 kmh 29.38 in994.9 mb 0.00 in0.0 mm 0.00 in0.0 mm 0.00 in0.0 mm
12:10 AM 87.5°F30.8°C 67.1°F19.5°C 51% 6.0 mph SE9.7 kmh SE 12.3 mph19.8 kmh 29.38 in994.9 mb 0.00 in0.0 mm 0.00 in0.0 mm 0.00 in0.0 mm
12:15 AM 87.4°F30.8°C 67.2°F19.6°C 51% 5.1 mph SSE8.2 kmh SSE 9.8 mph15.8 kmh 29.38 in994.9 mb 0.00 in0.0 mm 0.00 in0.0 mm 0.00 in0.0 mm
12:20 AM 87.4°F30.8°C 67.6°F19.8°C 52% 7.6 mph SSE12.2 kmh SSE 15.0 mph24.1 kmh 29.38 in994.9 mb 0.00 in0.0 mm 0.00 in0.0 mm 0.00 in0.0 mm
12:25 AM 87.4°F30.8°C 67.5°F19.7°C 52% 6.1 mph SSE9.8 kmh SSE 9.8 mph15.8 kmh 29.38 in994.9 mb 0.00 in0.0 mm 0.00 in0.0 mm 0.00 in0.0 mm
12:30 AM 87.3°F30.7°C 67.6°F19.8°C 52% 6.5 mph S10.5 kmh S 12.3 mph19.8 kmh 29.38 in994.9 mb 0.00 in0.0 mm 0.00 in0.0 mm 0.00 in0.0 mm
12:35 AM 87.3°F30.7°C 68.0°F20.0°C 53% 13.3 mph SSE21.4 kmh SSE 19.9 mph32.0 kmh 29.38 in994.9 mb 0.00 in0.0 mm 0.00 in0.0 mm 0.00 in0.0 mm
12:40 AM 87.1°F30.6°C 67.8°F19.9°C 53% 8.9 mph SSE14.3 kmh SSE 15.0 mph24.1 kmh 29.38 in994.9 mb 0.00 in0.0 mm 0.00 in0.0 mm 0.00 in0.0 mm
12:45 AM 86.9°F30.5°C 67.7°F19.8°C 53% 7.7 mph S12.4 kmh S 12.3 mph19.8 kmh 29.39 in995.3 mb 0.00 in0.0 mm 0.00 in0.0 mm 0.00 in0.0 mm
12:50 AM 86.9°F30.5°C 67.9°F19.9°C 53% 7.5 mph SE12.1 kmh SE 12.3 mph19.8 kmh 29.39 in995.3 mb 0.00 in0.0 mm 0.00 in0.0 mm 0.00 in0.0 mm
12:55 AM 86.9°F30.5°C 68.2°F20.1°C 54% 8.5 mph S13.7 kmh S 12.3 mph19.8 kmh 29.39 in995.3 mb 0.00 in0.0 mm 0.00 in0.0 mm 0.00 in0.0 mm
01:00 AM 86.5°F30.3°C 68.1°F20.1°C 54% 6.5 mph S10.5 kmh S 9.8 mph15.8 kmh 29.39 in995.3 mb 0.00 in0.0 mm 0.00 in0.0 mm 0.00 in0.0 mm
01:05 AM 86.4°F30.2°C 68.3°F20.2°C 55% 4.9 mph SE7.9 kmh SE 15.0 mph24.1 kmh 29.39 in995.3 mb 0.00 in0.0 mm 0.00 in0.0 mm 0.00 in0.0 mm
01:10 AM 86.4°F30.2°C 68.6°F20.3°C 56% 4.6 mph S7.4 kmh S 9.8 mph15.8 kmh 29.39 in995.3 mb 0.00 in0.0 mm 0.00 in0.0 mm 0.00 in0.0 mm
01:15 AM 86.3°F30.2°C 68.9°F20.5°C 56% 5.4 mph S8.7 kmh S 15.0 mph24.1 kmh 29.39 in995.3 mb 0.00 in0.0 mm 0.00 in0.0 mm 0.00 in0.0 mm
01:20 AM 85.7°F29.8°C 68.8°F20.4°C 57% 5.2 mph SSE8.4 kmh SSE 12.3 mph19.8 kmh 29.39 in995.3 mb 0.00 in0.0 mm 0.00 in0.0 mm 0.00 in0.0 mm
01:25 AM 85.6°F29.8°C 69.1°F20.6°C 58% 5.5 mph S8.9 kmh S 12.3 mph19.8 kmh 29.39 in995.3 mb 0.00 in0.0 mm 0.00 in0.0 mm 0.00 in0.0 mm
01:30 AM 85.5°F29.7°C 69.3°F20.7°C 58% 3.3 mph S5.3 kmh S 12.3 mph19.8 kmh 29.39 in995.3 mb 0.00 in0.0 mm 0.00 in0.0 mm 0.00 in0.0 mm
01:35 AM 85.4°F29.7°C 69.4°F20.8°C 59% 3.7 mph S6.0 kmh S 7.4 mph11.9 kmh 29.39 in995.3 mb 0.00 in0.0 mm 0.00 in0.0 mm 0.00 in0.0 mm
01:40 AM 84.4°F29.1°C 69.0°F20.6°C 60% 4.8 mph SSE7.7 kmh SSE 12.3 mph19.8 kmh 29.39 in995.3 mb 0.00 in0.0 mm 0.00 in0.0 mm 0.00 in0.0 mm
01:45 AM 84.4°F29.1°C 69.2°F20.7°C 60% 4.4 mph S7.1 kmh S 7.4 mph11.9 kmh 29.39 in995.3 mb 0.00 in0.0 mm 0.00 in0.0 mm 0.00 in0.0 mm
01:50 AM 84.4°F29.1°C 69.9°F21.1°C 62% 5.3 mph S8.5 kmh S 12.3 mph19.8 kmh 29.38 in994.9 mb 0.00 in0.0 mm 0.00 in0.0 mm 0.00 in0.0 mm
01:55 AM 84.2°F29.0°C 69.8°F21.0°C 62% 3.7 mph S6.0 kmh S 7.4 mph11.9 kmh 29.39 in995.3 mb 0.00 in0.0 mm 0.00 in0.0 mm 0.00 in0.0 mm
02:00 AM 83.7°F28.7°C 69.4°F20.8°C 62% 2.5 mph SW4.0 kmh SW 7.4 mph11.9 kmh 29.38 in994.9 mb 0.00 in0.0 mm 0.00 in0.0 mm 0.00 in0.0 mm
02:05 AM 83.7°F28.7°C 69.7°F20.9°C 63% 1.8 mph SW2.9 kmh SW 4.9 mph7.9 kmh 29.38 in994.9 mb 0.00 in0.0 mm 0.00 in0.0 mm 0.00 in0.0 mm
02:10 AM 83.6°F28.7°C 69.7°F20.9°C 63% 4.0 mph S6.4 kmh S 9.8 mph15.8 kmh 29.38 in994.9 mb 0.00 in0.0 mm 0.00 in0.0 mm 0.00 in0.0 mm
02:15 AM 83.5°F28.6°C 69.7°F20.9°C 63% 3.0 mph S4.8 kmh S 7.4 mph11.9 kmh 29.38 in994.9 mb 0.00 in0.0 mm 0.00 in0.0 mm 0.00 in0.0 mm
02:20 AM 83.0°F28.3°C 69.5°F20.8°C 64% 3.6 mph S5.8 kmh S 7.4 mph11.9 kmh 29.38 in994.9 mb 0.00 in0.0 mm 0.00 in0.0 mm 0.00 in0.0 mm
02:25 AM 82.9°F28.3°C 69.5°F20.8°C 64% 2.8 mph S4.5 kmh S 9.8 mph15.8 kmh 29.38 in994.9 mb 0.00 in0.0 mm 0.00 in0.0 mm 0.00 in0.0 mm
02:30 AM 82.9°F28.3°C 69.9°F21.1°C 65% 3.8 mph SSW6.1 kmh SSW 9.8 mph15.8 kmh 29.38 in994.9 mb 0.00 in0.0 mm 0.00 in0.0 mm 0.00 in0.0 mm
02:35 AM 82.9°F28.3°C 69.9°F21.1°C 65% 2.4 mph S3.9 kmh S 4.9 mph7.9 kmh 29.38 in994.9 mb 0.00 in0.0 mm 0.00 in0.0 mm 0.00 in0.0 mm
02:40 AM 82.4°F28.0°C 69.6°F20.9°C 65% 2.4 mph S3.9 kmh S 4.9 mph7.9 kmh 29.38 in994.9 mb 0.00 in0.0 mm 0.00 in0.0 mm 0.00 in0.0 mm
02:45 AM 82.4°F28.0°C 69.9°F21.1°C 66% 2.7 mph SSW4.3 kmh SSW 7.4 mph11.9 kmh 29.38 in994.9 mb 0.00 in0.0 mm 0.00 in0.0 mm 0.00 in0.0 mm
02:50 AM 82.4°F28.0°C 69.9°F21.1°C 66% 3.4 mph S5.5 kmh S 9.8 mph15.8 kmh 29.38 in994.9 mb 0.00 in0.0 mm 0.00 in0.0 mm 0.00 in0.0 mm
02:55 AM 82.3°F27.9°C 70.2°F21.2°C 67% 2.9 mph S4.7 kmh S 7.4 mph11.9 kmh 29.38 in994.9 mb 0.00 in0.0 mm 0.00 in0.0 mm 0.00 in0.0 mm
03:00 AM 82.0°F27.8°C 70.4°F21.3°C 68% 3.0 mph S4.8 kmh S 7.4 mph11.9 kmh 29.37 in994.6 mb 0.00 in0.0 mm 0.00 in0.0 mm 0.00 in0.0 mm
03:05 AM 82.0°F27.8°C 70.4°F21.3°C 68% 3.4 mph S5.5 kmh S 9.8 mph15.8 kmh 29.37 in994.6 mb 0.00 in0.0 mm 0.00 in0.0 mm 0.00 in0.0 mm
03:10 AM 81.9°F27.7°C 70.3°F21.3°C 68% 2.6 mph S4.2 kmh S 7.4 mph11.9 kmh 29.37 in994.6 mb 0.00 in0.0 mm 0.00 in0.0 mm 0.00 in0.0 mm
03:15 AM 81.9°F27.7°C 70.6°F21.4°C 69% 4.4 mph S7.1 kmh S 9.8 mph15.8 kmh 29.37 in994.6 mb 0.00 in0.0 mm 0.00 in0.0 mm 0.00 in0.0 mm
03:20 AM 81.9°F27.7°C 70.7°F21.5°C 69% 2.2 mph S3.5 kmh S 7.4 mph11.9 kmh 29.37 in994.6 mb 0.00 in0.0 mm 0.00 in0.0 mm 0.00 in0.0 mm
03:25 AM 81.8°F27.7°C 70.6°F21.4°C 69% 2.2 mph SSW3.5 kmh SSW 7.4 mph11.9 kmh 29.37 in994.6 mb 0.00 in0.0 mm 0.00 in0.0 mm 0.00 in0.0 mm
03:30 AM 81.7°F27.6°C 70.5°F21.4°C 69% 1.8 mph SSW2.9 kmh SSW 7.4 mph11.9 kmh 29.37 in994.6 mb 0.00 in0.0 mm 0.00 in0.0 mm 0.00 in0.0 mm
03:35 AM 81.7°F27.6°C 70.5°F21.4°C 69% 1.7 mph S2.7 kmh S 7.4 mph11.9 kmh 29.38 in994.9 mb 0.00 in0.0 mm 0.00 in0.0 mm 0.00 in0.0 mm
03:40 AM 81.5°F27.5°C 70.3°F21.3°C 69% 1.8 mph S2.9 kmh S 4.9 mph7.9 kmh 29.37 in994.6 mb 0.00 in0.0 mm 0.00 in0.0 mm 0.00 in0.0 mm
03:45 AM 81.4°F27.4°C 70.2°F21.2°C 69% 3.9 mph S6.3 kmh S 7.4 mph11.9 kmh 29.37 in994.6 mb 0.00 in0.0 mm 0.00 in0.0 mm 0.00 in0.0 mm
03:50 AM 81.3°F27.4°C 70.0°F21.1°C 69% 1.9 mph SSW3.1 kmh SSW 4.9 mph7.9 kmh 29.37 in994.6 mb 0.00 in0.0 mm 0.00 in0.0 mm 0.00 in0.0 mm
03:55 AM 81.2°F27.3°C 69.8°F21.0°C 68% 3.8 mph S6.1 kmh S 9.8 mph15.8 kmh 29.37 in994.6 mb 0.00 in0.0 mm 0.00 in0.0 mm 0.00 in0.0 mm
04:00 AM 81.1°F27.3°C 69.5°F20.8°C 68% 2.5 mph S4.0 kmh S 4.9 mph7.9 kmh 29.38 in994.9 mb 0.00 in0.0 mm 0.00 in0.0 mm 0.00 in0.0 mm
04:05 AM 81.0°F27.2°C 69.4°F20.8°C 68% 4.2 mph S6.8 kmh S 9.8 mph15.8 kmh 29.37 in994.6 mb 0.00 in0.0 mm 0.00 in0.0 mm 0.00 in0.0 mm
04:10 AM 81.0°F27.2°C 69.4°F20.8°C 68% 3.7 mph S6.0 kmh S 12.3 mph19.8 kmh 29.37 in994.6 mb 0.00 in0.0 mm 0.00 in0.0 mm 0.00 in0.0 mm
04:15 AM 80.9°F27.2°C 69.3°F20.7°C 68% 3.6 mph S5.8 kmh S 7.4 mph11.9 kmh 29.37 in994.6 mb 0.00 in0.0 mm 0.00 in0.0 mm 0.00 in0.0 mm
04:20 AM 80.8°F27.1°C 69.2°F20.7°C 68% 3.7 mph SSE6.0 kmh SSE 9.8 mph15.8 kmh 29.38 in994.9 mb 0.00 in0.0 mm 0.00 in0.0 mm 0.00 in0.0 mm
04:25 AM 80.8°F27.1°C 69.2°F20.7°C 68% 3.9 mph S6.3 kmh S 7.4 mph11.9 kmh 29.37 in994.6 mb 0.00 in0.0 mm 0.00 in0.0 mm 0.00 in0.0 mm
04:30 AM 80.8°F27.1°C 69.2°F20.7°C 68% 2.0 mph SSE3.2 kmh SSE 7.4 mph11.9 kmh 29.38 in994.9 mb 0.00 in0.0 mm 0.00 in0.0 mm 0.00 in0.0 mm
04:35 AM 80.6°F27.0°C 69.7°F20.9°C 70% 1.9 mph SSW3.1 kmh SSW 4.9 mph7.9 kmh 29.38 in994.9 mb 0.00 in0.0 mm 0.00 in0.0 mm 0.00 in0.0 mm
04:40 AM 80.6°F27.0°C 69.9°F21.1°C 70% 2.7 mph S4.3 kmh S 7.4 mph11.9 kmh 29.38 in994.9 mb 0.00 in0.0 mm 0.00 in0.0 mm 0.00 in0.0 mm
04:45 AM 80.5°F26.9°C 69.8°F21.0°C 70% 4.1 mph S6.6 kmh S 9.8 mph15.8 kmh 29.37 in994.6 mb 0.00 in0.0 mm 0.00 in0.0 mm 0.00 in0.0 mm
04:50 AM 80.4°F26.9°C 69.7°F20.9°C 70% 3.9 mph S6.3 kmh S 7.4 mph11.9 kmh 29.37 in994.6 mb 0.00 in0.0 mm 0.00 in0.0 mm 0.00 in0.0 mm
04:55 AM 80.2°F26.8°C 69.5°F20.8°C 70% 4.4 mph S7.1 kmh S 7.4 mph11.9 kmh 29.38 in994.9 mb 0.00 in0.0 mm 0.00 in0.0 mm 0.00 in0.0 mm
05:00 AM 80.1°F26.7°C 69.4°F20.8°C 70% 1.5 mph SSW2.4 kmh SSW 4.9 mph7.9 kmh 29.37 in994.6 mb 0.00 in0.0 mm 0.00 in0.0 mm 0.00 in0.0 mm
05:05 AM 79.9°F26.6°C 69.2°F20.7°C 70% 4.0 mph SSW6.4 kmh SSW 7.4 mph11.9 kmh 29.37 in994.6 mb 0.00 in0.0 mm 0.00 in0.0 mm 0.00 in0.0 mm
05:10 AM 79.7°F26.5°C 69.0°F20.6°C 70% 4.4 mph S7.1 kmh S 9.8 mph15.8 kmh 29.37 in994.6 mb 0.00 in0.0 mm 0.00 in0.0 mm 0.00 in0.0 mm
05:15 AM 79.5°F26.4°C 68.8°F20.4°C 70% 4.0 mph S6.4 kmh S 7.4 mph11.9 kmh 29.38 in994.9 mb 0.00 in0.0 mm 0.00 in0.0 mm 0.00 in0.0 mm
05:20 AM 79.5°F26.4°C 68.8°F20.4°C 70% 3.9 mph S6.3 kmh S 9.8 mph15.8 kmh 29.38 in994.9 mb 0.00 in0.0 mm 0.00 in0.0 mm 0.00 in0.0 mm
05:25 AM 79.3°F26.3°C 68.6°F20.3°C 70% 2.8 mph S4.5 kmh S 7.4 mph11.9 kmh 29.38 in994.9 mb 0.00 in0.0 mm 0.00 in0.0 mm 0.00 in0.0 mm
05:30 AM 79.3°F26.3°C 68.6°F20.3°C 70% 2.3 mph S3.7 kmh S 4.9 mph7.9 kmh 29.38 in994.9 mb 0.00 in0.0 mm 0.00 in0.0 mm 0.00 in0.0 mm
05:35 AM 79.2°F26.2°C 68.6°F20.3°C 70% 2.6 mph S4.2 kmh S 4.9 mph7.9 kmh 29.39 in995.3 mb 0.00 in0.0 mm 0.00 in0.0 mm 0.00 in0.0 mm
05:40 AM 79.2°F26.2°C 68.6°F20.3°C 70% 2.3 mph S3.7 kmh S 4.9 mph7.9 kmh 29.39 in995.3 mb 0.00 in0.0 mm 0.00 in0.0 mm 0.00 in0.0 mm
05:45 AM 79.2°F26.2°C 68.5°F20.3°C 70% 4.5 mph S7.2 kmh S 7.4 mph11.9 kmh 29.39 in995.3 mb 0.00 in0.0 mm 0.00 in0.0 mm 0.00 in0.0 mm
05:50 AM 79.0°F26.1°C 68.4°F20.2°C 70% 1.6 mph SSW2.6 kmh SSW 4.9 mph7.9 kmh 29.39 in995.3 mb 0.00 in0.0 mm 0.00 in0.0 mm 0.00 in0.0 mm
05:55 AM 79.0°F26.1°C 68.9°F20.5°C 71% 2.3 mph S3.7 kmh S 4.9 mph7.9 kmh 29.39 in995.3 mb 0.00 in0.0 mm 0.00 in0.0 mm 0.00 in0.0 mm
06:00 AM 78.9°F26.1°C 69.1°F20.6°C 72% 1.7 mph SSW2.7 kmh SSW 4.9 mph7.9 kmh 29.39 in995.3 mb 0.00 in0.0 mm 0.00 in0.0 mm 0.00 in0.0 mm
06:05 AM 78.8°F26.0°C 69.0°F20.6°C 72% 1.0 mph SW1.6 kmh SW 4.9 mph7.9 kmh 29.39 in995.3 mb 0.00 in0.0 mm 0.00 in0.0 mm 0.00 in0.0 mm
06:10 AM 78.7°F25.9°C 68.9°F20.5°C 72% 1.3 mph S2.1 kmh S 7.4 mph11.9 kmh 29.39 in995.3 mb 0.00 in0.0 mm 0.00 in0.0 mm 0.00 in0.0 mm
06:15 AM 78.6°F25.9°C 68.8°F20.4°C 72% 2.1 mph SW3.4 kmh SW 4.9 mph7.9 kmh 29.39 in995.3 mb 0.00 in0.0 mm 0.00 in0.0 mm 0.00 in0.0 mm
06:20 AM 78.6°F25.9°C 69.1°F20.6°C 73% 0.6 mph SSW1.0 kmh SSW 2.5 mph4.0 kmh 29.39 in995.3 mb 0.00 in0.0 mm 0.00 in0.0 mm 0.00 in0.0 mm
06:25 AM 78.6°F25.9°C 69.2°F20.7°C 73% 0.3 mph SW0.5 kmh SW 2.5 mph4.0 kmh 29.39 in995.3 mb 0.00 in0.0 mm 0.00 in0.0 mm 0.00 in0.0 mm
06:30 AM 78.4°F25.8°C 69.0°F20.6°C 73% 0.1 mph WSW0.2 kmh WSW 2.5 mph4.0 kmh 29.39 in995.3 mb 0.00 in0.0 mm 0.00 in0.0 mm 0.00 in0.0 mm
06:35 AM 78.3°F25.7°C 68.9°F20.5°C 73% 2.0 mph S3.2 kmh S 4.9 mph7.9 kmh 29.39 in995.3 mb 0.00 in0.0 mm 0.00 in0.0 mm 0.00 in0.0 mm
06:40 AM 78.0°F25.6°C 68.7°F20.4°C 73% 0.6 mph SW1.0 kmh SW 2.5 mph4.0 kmh 29.39 in995.3 mb 0.00 in0.0 mm 0.00 in0.0 mm 0.00 in0.0 mm
06:45 AM 77.8°F25.4°C 68.6°F20.3°C 73% 1.7 mph S2.7 kmh S 4.9 mph7.9 kmh 29.39 in995.3 mb 0.00 in0.0 mm 0.00 in0.0 mm 0.00 in0.0 mm
06:50 AM 77.6°F25.3°C 68.6°F20.3°C 74% 1.2 mph S1.9 kmh S 7.4 mph11.9 kmh 29.40 in995.6 mb 0.00 in0.0 mm 0.00 in0.0 mm 0.00 in0.0 mm
06:55 AM 77.4°F25.2°C 68.4°F20.2°C 74% 1.1 mph S1.8 kmh S 4.9 mph7.9 kmh 29.40 in995.6 mb 0.00 in0.0 mm 0.00 in0.0 mm 0.00 in0.0 mm
07:00 AM 77.2°F25.1°C 68.3°F20.2°C 74% 1.6 mph SSE2.6 kmh SSE 4.9 mph7.9 kmh 29.40 in995.6 mb 0.00 in0.0 mm 0.00 in0.0 mm 0.00 in0.0 mm
07:05 AM 77.2°F25.1°C 68.3°F20.2°C 74% 0.6 mph SW1.0 kmh SW 2.5 mph4.0 kmh 29.40 in995.6 mb 0.00 in0.0 mm 0.00 in0.0 mm 0.00 in0.0 mm
07:10 AM 77.2°F25.1°C 68.3°F20.2°C 74% 1.4 mph SSW2.3 kmh SSW 4.9 mph7.9 kmh 29.40 in995.6 mb 0.00 in0.0 mm 0.00 in0.0 mm 0.00 in0.0 mm
07:15 AM 77.2°F25.1°C 68.3°F20.2°C 74% 1.7 mph S2.7 kmh S 4.9 mph7.9 kmh 29.40 in995.6 mb 0.00 in0.0 mm 0.00 in0.0 mm 0.00 in0.0 mm
07:20 AM 77.2°F25.1°C 68.2°F20.1°C 74% Calm Calm 2.5 mph4.0 kmh 29.41 in995.9 mb 0.00 in0.0 mm 0.00 in0.0 mm 0.00 in0.0 mm
07:25 AM 77.4°F25.2°C 68.0°F20.0°C 73% 0.3 mph S0.5 kmh S 2.5 mph4.0 kmh 29.41 in995.9 mb 0.00 in0.0 mm 0.00 in0.0 mm 0.00 in0.0 mm
07:30 AM 77.6°F25.3°C 67.4°F19.7°C 71% 2.0 mph SSW3.2 kmh SSW 4.9 mph7.9 kmh 29.41 in995.9 mb 0.00 in0.0 mm 0.00 in0.0 mm 0.00 in0.0 mm
07:35 AM 77.9°F25.5°C 67.4°F19.7°C 70% 1.6 mph S2.6 kmh S 4.9 mph7.9 kmh 29.41 in995.9 mb 0.00 in0.0 mm 0.00 in0.0 mm 0.00 in0.0 mm
07:40 AM 78.2°F25.7°C 67.5°F19.7°C 70% 0.9 mph SSW1.4 kmh SSW 4.9 mph7.9 kmh 29.41 in995.9 mb 0.00 in0.0 mm 0.00 in0.0 mm 0.00 in0.0 mm
07:45 AM 78.6°F25.9°C 67.6°F19.8°C 69% 0.8 mph S1.3 kmh S 2.5 mph4.0 kmh 29.41 in995.9 mb 0.00 in0.0 mm 0.00 in0.0 mm 0.00 in0.0 mm
07:50 AM 79.1°F26.2°C 67.7°F19.8°C 68% 0.7 mph SW1.1 kmh SW 2.5 mph4.0 kmh 29.41 in995.9 mb 0.00 in0.0 mm 0.00 in0.0 mm 0.00 in0.0 mm
07:55 AM 79.4°F26.3°C 67.4°F19.7°C 67% 0.7 mph SSE1.1 kmh SSE 7.4 mph11.9 kmh 29.41 in995.9 mb 0.00 in0.0 mm 0.00 in0.0 mm 0.00 in0.0 mm
08:00 AM 79.6°F26.4°C 67.2°F19.6°C 66% 0.3 mph WSW0.5 kmh WSW 2.5 mph4.0 kmh 29.41 in995.9 mb 0.00 in0.0 mm 0.00 in0.0 mm 0.00 in0.0 mm
08:05 AM 80.0°F26.7°C 67.3°F19.6°C 66% 0.8 mph SSW1.3 kmh SSW 4.9 mph7.9 kmh 29.40 in995.6 mb 0.00 in0.0 mm 0.00 in0.0 mm 0.00 in0.0 mm
08:10 AM 80.2°F26.8°C 67.3°F19.6°C 65% 2.2 mph S3.5 kmh S 7.4 mph11.9 kmh 29.41 in995.9 mb 0.00 in0.0 mm 0.00 in0.0 mm 0.00 in0.0 mm
08:15 AM 80.5°F26.9°C 67.4°F19.7°C 64% 0.6 mph WSW1.0 kmh WSW 2.5 mph4.0 kmh 29.41 in995.9 mb 0.00 in0.0 mm 0.00 in0.0 mm 0.00 in0.0 mm
08:20 AM 80.8°F27.1°C 67.5°F19.7°C 64% 0.8 mph SW1.3 kmh SW 2.5 mph4.0 kmh 29.41 in995.9 mb 0.00 in0.0 mm 0.00 in0.0 mm 0.00 in0.0 mm
08:25 AM 81.0°F27.2°C 67.5°F19.7°C 64% 1.9 mph W3.1 kmh W 4.9 mph7.9 kmh 29.41 in995.9 mb 0.00 in0.0 mm 0.00 in0.0 mm 0.00 in0.0 mm
08:30 AM 81.2°F27.3°C 67.4°F19.7°C 63% 0.6 mph WSW1.0 kmh WSW 2.5 mph4.0 kmh 29.41 in995.9 mb 0.00 in0.0 mm 0.00 in0.0 mm 0.00 in0.0 mm
08:35 AM 81.3°F27.4°C 67.5°F19.7°C 63% 0.6 mph SW1.0 kmh SW 4.9 mph7.9 kmh 29.42 in996.3 mb 0.00 in0.0 mm 0.00 in0.0 mm 0.00 in0.0 mm
08:40 AM 81.5°F27.5°C 67.7°F19.8°C 63% 1.0 mph SW1.6 kmh SW 2.5 mph4.0 kmh 29.42 in996.3 mb 0.00 in0.0 mm 0.00 in0.0 mm 0.00 in0.0 mm
08:45 AM 81.7°F27.6°C 67.6°F19.8°C 62% 0.5 mph WSW0.8 kmh WSW 2.5 mph4.0 kmh 29.42 in996.3 mb 0.00 in0.0 mm 0.00 in0.0 mm 0.00 in0.0 mm
08:50 AM 81.9°F27.7°C 67.7°F19.8°C 62% 0.3 mph WSW0.5 kmh WSW 4.9 mph7.9 kmh 29.42 in996.3 mb 0.00 in0.0 mm 0.00 in0.0 mm 0.00 in0.0 mm
08:55 AM 82.3°F27.9°C 67.4°F19.7°C 61% 0.2 mph SW0.3 kmh SW 2.5 mph4.0 kmh 29.42 in996.3 mb 0.00 in0.0 mm 0.00 in0.0 mm 0.00 in0.0 mm
09:00 AM 82.6°F28.1°C 67.4°F19.7°C 60% 0.9 mph W1.4 kmh W 4.9 mph7.9 kmh 29.42 in996.3 mb 0.00 in0.0 mm 0.00 in0.0 mm 0.00 in0.0 mm
09:05 AM 82.9°F28.3°C 67.8°F19.9°C 60% 1.1 mph WSW1.8 kmh WSW 4.9 mph7.9 kmh 29.42 in996.3 mb 0.00 in0.0 mm 0.00 in0.0 mm 0.00 in0.0 mm
09:10 AM 83.2°F28.4°C 67.0°F19.4°C 58% 0.3 mph WSW0.5 kmh WSW 2.5 mph4.0 kmh 29.42 in996.3 mb 0.00 in0.0 mm 0.00 in0.0 mm 0.00 in0.0 mm
09:15 AM 83.6°F28.7°C 66.7°F19.3°C 57% 0.3 mph WSW0.5 kmh WSW 2.5 mph4.0 kmh 29.42 in996.3 mb 0.00 in0.0 mm 0.00 in0.0 mm 0.00 in0.0 mm
09:20 AM 83.9°F28.8°C 66.5°F19.2°C 56% 0.3 mph S0.5 kmh S 2.5 mph4.0 kmh 29.42 in996.3 mb 0.00 in0.0 mm 0.00 in0.0 mm 0.00 in0.0 mm
09:25 AM 84.0°F28.9°C 66.5°F19.2°C 56% 0.2 mph WSW0.3 kmh WSW 2.5 mph4.0 kmh 29.42 in996.3 mb 0.00 in0.0 mm 0.00 in0.0 mm 0.00 in0.0 mm
09:30 AM 84.2°F29.0°C 66.1°F18.9°C 55% 1.3 mph SW2.1 kmh SW 4.9 mph7.9 kmh 29.43 in996.6 mb 0.00 in0.0 mm 0.00 in0.0 mm 0.00 in0.0 mm
09:35 AM 84.6°F29.2°C 65.8°F18.8°C 54% 1.7 mph SW2.7 kmh SW 7.4 mph11.9 kmh 29.42 in996.3 mb 0.00 in0.0 mm 0.00 in0.0 mm 0.00 in0.0 mm
09:40 AM 85.1°F29.5°C 65.6°F18.7°C 52% 0.6 mph WSW1.0 kmh WSW 2.5 mph4.0 kmh 29.42 in996.3 mb 0.00 in0.0 mm 0.00 in0.0 mm 0.00 in0.0 mm
09:45 AM 85.6°F29.8°C 65.7°F18.7°C 52% 0.6 mph WSW1.0 kmh WSW 4.9 mph7.9 kmh 29.42 in996.3 mb 0.00 in0.0 mm 0.00 in0.0 mm 0.00 in0.0 mm
09:50 AM 86.1°F30.1°C 66.4°F19.1°C 52% 1.7 mph SW2.7 kmh SW 4.9 mph7.9 kmh 29.43 in996.6 mb 0.00 in0.0 mm 0.00 in0.0 mm 0.00 in0.0 mm
09:55 AM 86.4°F30.2°C 66.1°F18.9°C 51% 0.8 mph WSW1.3 kmh WSW 2.5 mph4.0 kmh 29.42 in996.3 mb 0.00 in0.0 mm 0.00 in0.0 mm 0.00 in0.0 mm
10:00 AM 86.6°F30.3°C 66.3°F19.1°C 51% 1.7 mph WSW2.7 kmh WSW 4.9 mph7.9 kmh 29.42 in996.3 mb 0.00 in0.0 mm 0.00 in0.0 mm 0.00 in0.0 mm
10:05 AM 86.8°F30.4°C 66.3°F19.1°C 51% 0.7 mph WSW1.1 kmh WSW 2.5 mph4.0 kmh 29.42 in996.3 mb 0.00 in0.0 mm 0.00 in0.0 mm 0.00 in0.0 mm
10:10 AM 87.2°F30.7°C 65.9°F18.8°C 49% 0.5 mph SW0.8 kmh SW 2.5 mph4.0 kmh 29.42 in996.3 mb 0.00 in0.0 mm 0.00 in0.0 mm 0.00 in0.0 mm
10:15 AM 87.3°F30.7°C 65.8°F18.8°C 49% 0.9 mph W1.4 kmh W 4.9 mph7.9 kmh 29.42 in996.3 mb 0.00 in0.0 mm 0.00 in0.0 mm 0.00 in0.0 mm
10:20 AM 87.5°F30.8°C 65.8°F18.8°C 49% 0.3 mph WSW0.5 kmh WSW 2.5 mph4.0 kmh 29.42 in996.3 mb 0.00 in0.0 mm 0.00 in0.0 mm 0.00 in0.0 mm
10:25 AM 88.0°F31.1°C 64.7°F18.2°C 46% Calm Calm -- 29.43 in996.6 mb 0.00 in0.0 mm 0.00 in0.0 mm 0.00 in0.0 mm
10:30 AM 88.4°F31.3°C 64.8°F18.2°C 46% 0.9 mph WSW1.4 kmh WSW 2.5 mph4.0 kmh 29.43 in996.6 mb 0.00 in0.0 mm 0.00 in0.0 mm 0.00 in0.0 mm
10:35 AM 88.8°F31.6°C 66.5°F19.2°C 48% 1.5 mph WSW2.4 kmh WSW 9.8 mph15.8 kmh 29.43 in996.6 mb 0.00 in0.0 mm 0.00 in0.0 mm 0.00 in0.0 mm
10:40 AM 89.1°F31.7°C 64.7°F18.2°C 44% 0.5 mph SSW0.8 kmh SSW 2.5 mph4.0 kmh 29.43 in996.6 mb 0.00 in0.0 mm 0.00 in0.0 mm 0.00 in0.0 mm
10:45 AM 89.5°F31.9°C 65.0°F18.3°C 44% 0.5 mph WSW0.8 kmh WSW 4.9 mph7.9 kmh 29.42 in996.3 mb 0.00 in0.0 mm 0.00 in0.0 mm 0.00 in0.0 mm
10:50 AM 89.9°F32.2°C 64.8°F18.2°C 44% 0.5 mph WSW0.8 kmh WSW 2.5 mph4.0 kmh 29.43 in996.6 mb 0.00 in0.0 mm 0.00 in0.0 mm 0.00 in0.0 mm
10:55 AM 90.2°F32.3°C 64.6°F18.1°C 43% 0.4 mph WSW0.6 kmh WSW 2.5 mph4.0 kmh 29.43 in996.6 mb 0.00 in0.0 mm 0.00 in0.0 mm 0.00 in0.0 mm
11:00 AM 90.4°F32.4°C 65.3°F18.5°C 44% 0.1 mph WSW0.2 kmh WSW 2.5 mph4.0 kmh 29.42 in996.3 mb 0.00 in0.0 mm 0.00 in0.0 mm 0.00 in0.0 mm
11:05 AM 90.9°F32.7°C 63.4°F17.4°C 40% 0.5 mph SW0.8 kmh SW 2.5 mph4.0 kmh 29.42 in996.3 mb 0.00 in0.0 mm 0.00 in0.0 mm 0.00 in0.0 mm
11:10 AM 91.3°F32.9°C 64.2°F17.9°C 41% 0.9 mph WSW1.4 kmh WSW 2.5 mph4.0 kmh 29.42 in996.3 mb 0.00 in0.0 mm 0.00 in0.0 mm 0.00 in0.0 mm
11:15 AM 91.7°F33.2°C 64.0°F17.8°C 40% 1.1 mph SW1.8 kmh SW 2.5 mph4.0 kmh 29.42 in996.3 mb 0.00 in0.0 mm 0.00 in0.0 mm 0.00 in0.0 mm
11:20 AM 91.9°F33.3°C 64.6°F18.1°C 41% 2.1 mph S3.4 kmh S 7.4 mph11.9 kmh 29.42 in996.3 mb 0.00 in0.0 mm 0.00 in0.0 mm 0.00 in0.0 mm
11:25 AM 92.0°F33.3°C 65.3°F18.5°C 42% 1.8 mph SW2.9 kmh SW 4.9 mph7.9 kmh 29.42 in996.3 mb 0.00 in0.0 mm 0.00 in0.0 mm 0.00 in0.0 mm
11:30 AM 92.4°F33.6°C 64.0°F17.8°C 39% 0.6 mph W1.0 kmh W 2.5 mph4.0 kmh 29.42 in996.3 mb 0.00 in0.0 mm 0.00 in0.0 mm 0.00 in0.0 mm
11:35 AM 92.6°F33.7°C 62.6°F17.0°C 37% 0.5 mph WNW0.8 kmh WNW 2.5 mph4.0 kmh 29.42 in996.3 mb 0.00 in0.0 mm 0.00 in0.0 mm 0.00 in0.0 mm
11:40 AM 92.7°F33.7°C 63.9°F17.7°C 39% 1.1 mph WSW1.8 kmh WSW 2.5 mph4.0 kmh 29.42 in996.3 mb 0.00 in0.0 mm 0.00 in0.0 mm 0.00 in0.0 mm
11:45 AM 92.7°F33.7°C 63.6°F17.6°C 38% 0.7 mph SW1.1 kmh SW 2.5 mph4.0 kmh 29.42 in996.3 mb 0.00 in0.0 mm 0.00 in0.0 mm 0.00 in0.0 mm
11:50 AM 92.8°F33.8°C 63.3°F17.4°C 38% 0.6 mph SW1.0 kmh SW 2.5 mph4.0 kmh 29.42 in996.3 mb 0.00 in0.0 mm 0.00 in0.0 mm 0.00 in0.0 mm
11:55 AM 93.0°F33.9°C 62.8°F17.1°C 37% 0.1 mph SE0.2 kmh SE 2.5 mph4.0 kmh 29.42 in996.3 mb 0.00 in0.0 mm 0.00 in0.0 mm 0.00 in0.0 mm
12:00 PM 93.4°F34.1°C 62.2°F16.8°C 36% 2.2 mph SSW3.5 kmh SSW 7.4 mph11.9 kmh 29.41 in995.9 mb 0.00 in0.0 mm 0.00 in0.0 mm 0.00 in0.0 mm
12:05 PM 93.4°F34.1°C 61.7°F16.5°C 35% 0.7 mph WSW1.1 kmh WSW 2.5 mph4.0 kmh 29.42 in996.3 mb 0.00 in0.0 mm 0.00 in0.0 mm 0.00 in0.0 mm
12:10 PM 93.7°F34.3°C 61.5°F16.4°C 34% 1.9 mph S3.1 kmh S 7.4 mph11.9 kmh 29.41 in995.9 mb 0.00 in0.0 mm 0.00 in0.0 mm 0.00 in0.0 mm
12:15 PM 94.1°F34.5°C 61.3°F16.3°C 34% 2.2 mph S3.5 kmh S 7.4 mph11.9 kmh 29.41 in995.9 mb 0.00 in0.0 mm 0.00 in0.0 mm 0.00 in0.0 mm
12:20 PM 94.5°F34.7°C 61.7°F16.5°C 34% 1.2 mph W1.9 kmh W 4.9 mph7.9 kmh 29.41 in995.9 mb 0.00 in0.0 mm 0.00 in0.0 mm 0.00 in0.0 mm
12:25 PM 94.6°F34.8°C 62.8°F17.1°C 35% 1.1 mph SSW1.8 kmh SSW 4.9 mph7.9 kmh 29.41 in995.9 mb 0.00 in0.0 mm 0.00 in0.0 mm 0.00 in0.0 mm
12:30 PM 94.6°F34.8°C 62.3°F16.8°C 34% 0.7 mph SW1.1 kmh SW 2.5 mph4.0 kmh 29.41 in995.9 mb 0.00 in0.0 mm 0.00 in0.0 mm 0.00 in0.0 mm
12:35 PM 94.8°F34.9°C 63.5°F17.5°C 36% 0.9 mph WSW1.4 kmh WSW 2.5 mph4.0 kmh 29.41 in995.9 mb 0.00 in0.0 mm 0.00 in0.0 mm 0.00 in0.0 mm
12:40 PM 94.8°F34.9°C 63.4°F17.4°C 36% 1.8 mph S2.9 kmh S 4.9 mph7.9 kmh 29.41 in995.9 mb 0.00 in0.0 mm 0.00 in0.0 mm 0.00 in0.0 mm
12:45 PM 94.9°F34.9°C 63.6°F17.6°C 36% 0.7 mph W1.1 kmh W 4.9 mph7.9 kmh 29.40 in995.6 mb 0.00 in0.0 mm 0.00 in0.0 mm 0.00 in0.0 mm
12:50 PM 95.0°F35.0°C 63.3°F17.4°C 35% 0.3 mph WSW0.5 kmh WSW 2.5 mph4.0 kmh 29.41 in995.9 mb 0.00 in0.0 mm 0.00 in0.0 mm 0.00 in0.0 mm
12:55 PM 95.0°F35.0°C 62.6°F17.0°C 34% 1.4 mph W2.3 kmh W 4.9 mph7.9 kmh 29.40 in995.6 mb 0.00 in0.0 mm 0.00 in0.0 mm 0.00 in0.0 mm
01:00 PM 95.0°F35.0°C 63.1°F17.3°C 35% 0.4 mph WSW0.6 kmh WSW 2.5 mph4.0 kmh 29.40 in995.6 mb 0.00 in0.0 mm 0.00 in0.0 mm 0.00 in0.0 mm
01:05 PM 95.1°F35.1°C 61.7°F16.5°C 33% 1.2 mph SSW1.9 kmh SSW 4.9 mph7.9 kmh 29.40 in995.6 mb 0.00 in0.0 mm 0.00 in0.0 mm 0.00 in0.0 mm
01:10 PM 95.4°F35.2°C 61.8°F16.6°C 33% 1.6 mph W2.6 kmh W 4.9 mph7.9 kmh 29.40 in995.6 mb 0.00 in0.0 mm 0.00 in0.0 mm 0.00 in0.0 mm
01:15 PM 95.4°F35.2°C 61.6°F16.4°C 33% 0.9 mph S1.4 kmh S 7.4 mph11.9 kmh 29.39 in995.3 mb 0.00 in0.0 mm 0.00 in0.0 mm 0.00 in0.0 mm
01:20 PM 95.6°F35.3°C 62.2°F16.8°C 33% 0.6 mph WSW1.0 kmh WSW 2.5 mph4.0 kmh 29.39 in995.3 mb 0.00 in0.0 mm 0.00 in0.0 mm 0.00 in0.0 mm
01:25 PM 95.9°F35.5°C 62.4°F16.9°C 33% 0.6 mph W1.0 kmh W 2.5 mph4.0 kmh 29.39 in995.3 mb 0.00 in0.0 mm 0.00 in0.0 mm 0.00 in0.0 mm
01:30 PM 96.2°F35.7°C 62.9°F17.2°C 34% 1.2 mph WSW1.9 kmh WSW 4.9 mph7.9 kmh 29.39 in995.3 mb 0.00 in0.0 mm 0.00 in0.0 mm 0.00 in0.0 mm
01:35 PM 96.3°F35.7°C 64.3°F17.9°C 35% 0.1 mph SW0.2 kmh SW 2.5 mph4.0 kmh 29.39 in995.3 mb 0.00 in0.0 mm 0.00 in0.0 mm 0.00 in0.0 mm
01:40 PM 96.5°F35.8°C 61.6°F16.4°C 32% 0.7 mph NW1.1 kmh NW 2.5 mph4.0 kmh 29.39 in995.3 mb 0.00 in0.0 mm 0.00 in0.0 mm 0.00 in0.0 mm
01:45 PM 96.9°F36.1°C 61.5°F16.4°C 31% 0.2 mph WNW0.3 kmh WNW 2.5 mph4.0 kmh 29.38 in994.9 mb 0.00 in0.0 mm 0.00 in0.0 mm 0.00 in0.0 mm
01:50 PM 97.0°F36.1°C 62.5°F16.9°C 32% 2.1 mph W3.4 kmh W 7.4 mph11.9 kmh 29.39 in995.3 mb 0.00 in0.0 mm 0.00 in0.0 mm 0.00 in0.0 mm
01:55 PM 97.0°F36.1°C 60.6°F15.9°C 30% 1.1 mph WSW1.8 kmh WSW 4.9 mph7.9 kmh 29.38 in994.9 mb 0.00 in0.0 mm 0.00 in0.0 mm 0.00 in0.0 mm
02:00 PM 97.0°F36.1°C 60.7°F15.9°C 30% 0.6 mph S1.0 kmh S 2.5 mph4.0 kmh 29.38 in994.9 mb 0.00 in0.0 mm 0.00 in0.0 mm 0.00 in0.0 mm
02:05 PM 97.2°F36.2°C 59.1°F15.1°C 28% 0.9 mph W1.4 kmh W 4.9 mph7.9 kmh 29.38 in994.9 mb 0.00 in0.0 mm 0.00 in0.0 mm 0.00 in0.0 mm
02:10 PM 97.5°F36.4°C 59.8°F15.4°C 29% 1.0 mph W1.6 kmh W 4.9 mph7.9 kmh 29.38 in994.9 mb 0.00 in0.0 mm 0.00 in0.0 mm 0.00 in0.0 mm
02:15 PM 97.5°F36.4°C 59.7°F15.4°C 29% 0.2 mph SW0.3 kmh SW 2.5 mph4.0 kmh 29.38 in994.9 mb 0.00 in0.0 mm 0.00 in0.0 mm 0.00 in0.0 mm
02:20 PM 97.9°F36.6°C 59.5°F15.3°C 28% 2.1 mph SSE3.4 kmh SSE 7.4 mph11.9 kmh 29.37 in994.6 mb 0.00 in0.0 mm 0.00 in0.0 mm 0.00 in0.0 mm
02:25 PM 98.2°F36.8°C 60.5°F15.8°C 29% 1.1 mph SE1.8 kmh SE 4.9 mph7.9 kmh 29.37 in994.6 mb 0.00 in0.0 mm 0.00 in0.0 mm 0.00 in0.0 mm
02:30 PM 98.5°F36.9°C 60.2°F15.7°C 28% 1.0 mph ESE1.6 kmh ESE 4.9 mph7.9 kmh 29.37 in994.6 mb 0.00 in0.0 mm 0.00 in0.0 mm 0.00 in0.0 mm
02:35 PM 98.6°F37.0°C 60.9°F16.1°C 29% 1.8 mph NW2.9 kmh NW 4.9 mph7.9 kmh 29.37 in994.6 mb 0.00 in0.0 mm 0.00 in0.0 mm 0.00 in0.0 mm
02:40 PM 98.4°F36.9°C 62.3°F16.8°C 31% 1.6 mph NNW2.6 kmh NNW 4.9 mph7.9 kmh 29.37 in994.6 mb 0.00 in0.0 mm 0.00 in0.0 mm 0.00 in0.0 mm
02:45 PM 98.2°F36.8°C 60.4°F15.8°C 29% 1.2 mph E1.9 kmh E 4.9 mph7.9 kmh 29.36 in994.2 mb 0.00 in0.0 mm 0.00 in0.0 mm 0.00 in0.0 mm
02:50 PM 98.0°F36.7°C 60.6°F15.9°C 29% 2.6 mph SE4.2 kmh SE 7.4 mph11.9 kmh 29.36 in994.2 mb 0.00 in0.0 mm 0.00 in0.0 mm 0.00 in0.0 mm
02:55 PM 98.1°F36.7°C 60.0°F15.6°C 29% 2.2 mph SSE3.5 kmh SSE 7.4 mph11.9 kmh 29.36 in994.2 mb 0.00 in0.0 mm 0.00 in0.0 mm 0.00 in0.0 mm
03:00 PM 98.1°F36.7°C 58.9°F14.9°C 28% 0.3 mph SSW0.5 kmh SSW 2.5 mph4.0 kmh 29.36 in994.2 mb 0.00 in0.0 mm 0.00 in0.0 mm 0.00 in0.0 mm
03:05 PM 98.3°F36.8°C 59.0°F15.0°C 28% 2.7 mph SE4.3 kmh SE 7.4 mph11.9 kmh 29.36 in994.2 mb 0.00 in0.0 mm 0.00 in0.0 mm 0.00 in0.0 mm
03:10 PM 98.6°F37.0°C 61.1°F16.2°C 29% 3.0 mph E4.8 kmh E 4.9 mph7.9 kmh 29.36 in994.2 mb 0.00 in0.0 mm 0.00 in0.0 mm 0.00 in0.0 mm
03:15 PM 98.6°F37.0°C 61.5°F16.4°C 30% 1.9 mph E3.1 kmh E 4.9 mph7.9 kmh 29.36 in994.2 mb 0.00 in0.0 mm 0.00 in0.0 mm 0.00 in0.0 mm
03:20 PM 98.6°F37.0°C 60.6°F15.9°C 29% 0.5 mph WSW0.8 kmh WSW 2.5 mph4.0 kmh 29.35 in993.9 mb 0.00 in0.0 mm 0.00 in0.0 mm 0.00 in0.0 mm
03:25 PM 98.6°F37.0°C 60.6°F15.9°C 29% 4.3 mph E6.9 kmh E 7.4 mph11.9 kmh 29.35 in993.9 mb 0.00 in0.0 mm 0.00 in0.0 mm 0.00 in0.0 mm
03:30 PM 98.6°F37.0°C 60.1°F15.6°C 28% 2.7 mph SW4.3 kmh SW 9.8 mph15.8 kmh 29.35 in993.9 mb 0.00 in0.0 mm 0.00 in0.0 mm 0.00 in0.0 mm
03:35 PM 98.6°F37.0°C 60.6°F15.9°C 29% 2.9 mph S4.7 kmh S 9.8 mph15.8 kmh 29.35 in993.9 mb 0.00 in0.0 mm 0.00 in0.0 mm 0.00 in0.0 mm
03:40 PM 98.5°F36.9°C 59.9°F15.5°C 28% 4.6 mph S7.4 kmh S 9.8 mph15.8 kmh 29.34 in993.6 mb 0.00 in0.0 mm 0.00 in0.0 mm 0.00 in0.0 mm
03:45 PM 98.5°F36.9°C 60.4°F15.8°C 29% 5.9 mph SSE9.5 kmh SSE 12.3 mph19.8 kmh 29.34 in993.6 mb 0.00 in0.0 mm 0.00 in0.0 mm 0.00 in0.0 mm
03:50 PM 98.6°F37.0°C 60.0°F15.6°C 28% 2.2 mph E3.5 kmh E 4.9 mph7.9 kmh 29.34 in993.6 mb 0.00 in0.0 mm 0.00 in0.0 mm 0.00 in0.0 mm
03:55 PM 98.8°F37.1°C 59.9°F15.5°C 28% 3.5 mph E5.6 kmh E 7.4 mph11.9 kmh 29.34 in993.6 mb 0.00 in0.0 mm 0.00 in0.0 mm 0.00 in0.0 mm
04:00 PM 98.9°F37.2°C 59.7°F15.4°C 28% 0.5 mph WNW0.8 kmh WNW 2.5 mph4.0 kmh 29.33 in993.2 mb 0.00 in0.0 mm 0.00 in0.0 mm 0.00 in0.0 mm
04:05 PM 99.1°F37.3°C 57.6°F14.2°C 26% 2.8 mph S4.5 kmh S 7.4 mph11.9 kmh 29.33 in993.2 mb 0.00 in0.0 mm 0.00 in0.0 mm 0.00 in0.0 mm
04:10 PM 99.1°F37.3°C 58.7°F14.8°C 26% 1.2 mph SSW1.9 kmh SSW 4.9 mph7.9 kmh 29.33 in993.2 mb 0.00 in0.0 mm 0.00 in0.0 mm 0.00 in0.0 mm
04:15 PM 99.4°F37.4°C 59.6°F15.3°C 27% 0.6 mph NNE1.0 kmh NNE 2.5 mph4.0 kmh 29.33 in993.2 mb 0.00 in0.0 mm 0.00 in0.0 mm 0.00 in0.0 mm
04:20 PM 99.9°F37.7°C 59.4°F15.2°C 26% 1.4 mph SE2.3 kmh SE 4.9 mph7.9 kmh 29.33 in993.2 mb 0.00 in0.0 mm 0.00 in0.0 mm 0.00 in0.0 mm
04:25 PM 100.2°F37.9°C 59.4°F15.2°C 26% 0.4 mph S0.6 kmh S 2.5 mph4.0 kmh 29.32 in992.9 mb 0.00 in0.0 mm 0.00 in0.0 mm 0.00 in0.0 mm
04:30 PM 100.6°F38.1°C 57.8°F14.3°C 25% 4.5 mph S7.2 kmh S 9.8 mph15.8 kmh 29.32 in992.9 mb 0.00 in0.0 mm 0.00 in0.0 mm 0.00 in0.0 mm
04:35 PM 100.3°F37.9°C 61.4°F16.3°C 28% 5.7 mph SE9.2 kmh SE 12.3 mph19.8 kmh 29.32 in992.9 mb 0.00 in0.0 mm 0.00 in0.0 mm 0.00 in0.0 mm
04:40 PM 100.0°F37.8°C 61.3°F16.3°C 28% 3.4 mph SSE5.5 kmh SSE 7.4 mph11.9 kmh 29.32 in992.9 mb 0.00 in0.0 mm 0.00 in0.0 mm 0.00 in0.0 mm
04:45 PM 99.8°F37.7°C 60.8°F16.0°C 28% 1.8 mph S2.9 kmh S 4.9 mph7.9 kmh 29.32 in992.9 mb 0.00 in0.0 mm 0.00 in0.0 mm 0.00 in0.0 mm
04:50 PM 99.4°F37.4°C 60.5°F15.8°C 28% 1.1 mph SE1.8 kmh SE 4.9 mph7.9 kmh 29.32 in992.9 mb 0.00 in0.0 mm 0.00 in0.0 mm 0.00 in0.0 mm
04:55 PM 99.2°F37.3°C 59.8°F15.4°C 28% 2.5 mph S4.0 kmh S 4.9 mph7.9 kmh 29.31 in992.6 mb 0.00 in0.0 mm 0.00 in0.0 mm 0.00 in0.0 mm
05:00 PM 99.1°F37.3°C 59.7°F15.4°C 28% 2.9 mph SSE4.7 kmh SSE 7.4 mph11.9 kmh 29.31 in992.6 mb 0.00 in0.0 mm 0.00 in0.0 mm 0.00 in0.0 mm
05:05 PM 99.0°F37.2°C 59.3°F15.2°C 27% 4.3 mph S6.9 kmh S 12.3 mph19.8 kmh 29.31 in992.6 mb 0.00 in0.0 mm 0.00 in0.0 mm 0.00 in0.0 mm
05:10 PM 99.0°F37.2°C 60.7°F15.9°C 29% 2.8 mph SE4.5 kmh SE 7.4 mph11.9 kmh 29.31 in992.6 mb 0.00 in0.0 mm 0.00 in0.0 mm 0.00 in0.0 mm
05:15 PM 99.1°F37.3°C 59.8°F15.4°C 28% 1.2 mph SE1.9 kmh SE 4.9 mph7.9 kmh 29.31 in992.6 mb 0.00 in0.0 mm 0.00 in0.0 mm 0.00 in0.0 mm
05:20 PM 99.2°F37.3°C 58.5°F14.7°C 26% 1.0 mph SSE1.6 kmh SSE 4.9 mph7.9 kmh 29.31 in992.6 mb 0.00 in0.0 mm 0.00 in0.0 mm 0.00 in0.0 mm
05:25 PM 99.3°F37.4°C 59.2°F15.1°C 27% 2.4 mph E3.9 kmh E 9.8 mph15.8 kmh 29.31 in992.6 mb 0.00 in0.0 mm 0.00 in0.0 mm 0.00 in0.0 mm
05:30 PM 99.1°F37.3°C 60.5°F15.8°C 28% 2.6 mph SE4.2 kmh SE 4.9 mph7.9 kmh 29.31 in992.6 mb 0.00 in0.0 mm 0.00 in0.0 mm 0.00 in0.0 mm
05:35 PM 98.9°F37.2°C 60.5°F15.8°C 28% 2.4 mph S3.9 kmh S 4.9 mph7.9 kmh 29.31 in992.6 mb 0.00 in0.0 mm 0.00 in0.0 mm 0.00 in0.0 mm
05:40 PM 98.7°F37.1°C 60.1°F15.6°C 28% 1.5 mph E2.4 kmh E 4.9 mph7.9 kmh 29.31 in992.6 mb 0.00 in0.0 mm 0.00 in0.0 mm 0.00 in0.0 mm
05:45 PM 98.6°F37.0°C 60.7°F15.9°C 29% 2.6 mph E4.2 kmh E 7.4 mph11.9 kmh 29.31 in992.6 mb 0.00 in0.0 mm 0.00 in0.0 mm 0.00 in0.0 mm
05:50 PM 98.3°F36.8°C 60.5°F15.8°C 29% 1.3 mph E2.1 kmh E 4.9 mph7.9 kmh 29.31 in992.6 mb 0.00 in0.0 mm 0.00 in0.0 mm 0.00 in0.0 mm
05:55 PM 98.1°F36.7°C 60.3°F15.7°C 29% 1.8 mph SE2.9 kmh SE 4.9 mph7.9 kmh 29.30 in992.2 mb 0.00 in0.0 mm 0.00 in0.0 mm 0.00 in0.0 mm
06:00 PM 98.1°F36.7°C 59.3°F15.2°C 28% 2.7 mph SSE4.3 kmh SSE 4.9 mph7.9 kmh 29.30 in992.2 mb 0.00 in0.0 mm 0.00 in0.0 mm 0.00 in0.0 mm
06:05 PM 97.9°F36.6°C 59.5°F15.3°C 28% 0.2 mph S0.3 kmh S 2.5 mph4.0 kmh 29.30 in992.2 mb 0.00 in0.0 mm 0.00 in0.0 mm 0.00 in0.0 mm
06:10 PM 98.1°F36.7°C 58.9°F14.9°C 28% 2.9 mph SSE4.7 kmh SSE 9.8 mph15.8 kmh 29.30 in992.2 mb 0.00 in0.0 mm 0.00 in0.0 mm 0.00 in0.0 mm
06:15 PM 98.2°F36.8°C 60.4°F15.8°C 29% 3.5 mph S5.6 kmh S 12.3 mph19.8 kmh 29.30 in992.2 mb 0.00 in0.0 mm 0.00 in0.0 mm 0.00 in0.0 mm
06:20 PM 98.2°F36.8°C 60.4°F15.8°C 29% 3.7 mph SSE6.0 kmh SSE 9.8 mph15.8 kmh 29.30 in992.2 mb 0.00 in0.0 mm 0.00 in0.0 mm 0.00 in0.0 mm
06:25 PM 98.1°F36.7°C 60.2°F15.7°C 29% 2.9 mph S4.7 kmh S 7.4 mph11.9 kmh 29.30 in992.2 mb 0.00 in0.0 mm 0.00 in0.0 mm 0.00 in0.0 mm
06:30 PM 98.1°F36.7°C 60.0°F15.6°C 29% 0.9 mph SE1.4 kmh SE 4.9 mph7.9 kmh 29.31 in992.6 mb 0.00 in0.0 mm 0.00 in0.0 mm 0.00 in0.0 mm
06:35 PM 98.1°F36.7°C 60.3°F15.7°C 29% 5.8 mph S9.3 kmh S 12.3 mph19.8 kmh 29.30 in992.2 mb 0.00 in0.0 mm 0.00 in0.0 mm 0.00 in0.0 mm
06:40 PM 97.7°F36.5°C 60.7°F15.9°C 30% 5.0 mph SSE8.0 kmh SSE 9.8 mph15.8 kmh 29.30 in992.2 mb 0.00 in0.0 mm 0.00 in0.0 mm 0.00 in0.0 mm
06:45 PM 97.4°F36.3°C 60.7°F15.9°C 30% 3.5 mph SSE5.6 kmh SSE 9.8 mph15.8 kmh 29.30 in992.2 mb 0.00 in0.0 mm 0.00 in0.0 mm 0.00 in0.0 mm
06:50 PM 97.2°F36.2°C 59.7°F15.4°C 29% 2.1 mph SE3.4 kmh SE 4.9 mph7.9 kmh 29.30 in992.2 mb 0.00 in0.0 mm 0.00 in0.0 mm 0.00 in0.0 mm
06:55 PM 97.1°F36.2°C 59.7°F15.4°C 29% 3.7 mph S6.0 kmh S 7.4 mph11.9 kmh 29.30 in992.2 mb 0.00 in0.0 mm 0.00 in0.0 mm 0.00 in0.0 mm
07:00 PM 96.8°F36.0°C 60.2°F15.7°C 30% 4.6 mph S7.4 kmh S 9.8 mph15.8 kmh 29.30 in992.2 mb 0.00 in0.0 mm 0.00 in0.0 mm 0.00 in0.0 mm
07:05 PM 96.5°F35.8°C 60.1°F15.6°C 30% 2.6 mph S4.2 kmh S 7.4 mph11.9 kmh 29.30 in992.2 mb 0.00 in0.0 mm 0.00 in0.0 mm 0.00 in0.0 mm
07:10 PM 96.4°F35.8°C 60.8°F16.0°C 31% 2.0 mph SSE3.2 kmh SSE 4.9 mph7.9 kmh 29.30 in992.2 mb 0.00 in0.0 mm 0.00 in0.0 mm 0.00 in0.0 mm
07:15 PM 96.4°F35.8°C 60.1°F15.6°C 30% 1.6 mph S2.6 kmh S 4.9 mph7.9 kmh 29.30 in992.2 mb 0.00 in0.0 mm 0.00 in0.0 mm 0.00 in0.0 mm
07:20 PM 96.3°F35.7°C 60.7°F15.9°C 31% 3.0 mph SSE4.8 kmh SSE 4.9 mph7.9 kmh 29.30 in992.2 mb 0.00 in0.0 mm 0.00 in0.0 mm 0.00 in0.0 mm
07:25 PM 96.1°F35.6°C 60.5°F15.8°C 31% 2.2 mph SE3.5 kmh SE 7.4 mph11.9 kmh 29.30 in992.2 mb 0.00 in0.0 mm 0.00 in0.0 mm 0.00 in0.0 mm
07:30 PM 95.9°F35.5°C 60.3°F15.7°C 31% 1.3 mph SSE2.1 kmh SSE 2.5 mph4.0 kmh 29.30 in992.2 mb 0.00 in0.0 mm 0.00 in0.0 mm 0.00 in0.0 mm
07:35 PM 95.7°F35.4°C 60.4°F15.8°C 31% 3.1 mph SSE5.0 kmh SSE 7.4 mph11.9 kmh 29.29 in991.9 mb 0.00 in0.0 mm 0.00 in0.0 mm 0.00 in0.0 mm
07:40 PM 95.4°F35.2°C 61.1°F16.2°C 32% 2.9 mph SSE4.7 kmh SSE 7.4 mph11.9 kmh 29.30 in992.2 mb 0.00 in0.0 mm 0.00 in0.0 mm 0.00 in0.0 mm
07:45 PM 95.1°F35.1°C 60.7°F15.9°C 32% 2.6 mph SE4.2 kmh SE 7.4 mph11.9 kmh 29.29 in991.9 mb 0.00 in0.0 mm 0.00 in0.0 mm 0.00 in0.0 mm
07:50 PM 94.8°F34.9°C 61.0°F16.1°C 33% 3.6 mph SSE5.8 kmh SSE 4.9 mph7.9 kmh 29.30 in992.2 mb 0.00 in0.0 mm 0.00 in0.0 mm 0.00 in0.0 mm
07:55 PM 94.5°F34.7°C 60.0°F15.6°C 32% 4.4 mph S7.1 kmh S 7.4 mph11.9 kmh 29.30 in992.2 mb 0.00 in0.0 mm 0.00 in0.0 mm 0.00 in0.0 mm
08:00 PM 94.2°F34.6°C 59.8°F15.4°C 32% 2.5 mph S4.0 kmh S 4.9 mph7.9 kmh 29.30 in992.2 mb 0.00 in0.0 mm 0.00 in0.0 mm 0.00 in0.0 mm
08:05 PM 93.8°F34.3°C 59.5°F15.3°C 32% 4.1 mph S6.6 kmh S 7.4 mph11.9 kmh 29.30 in992.2 mb 0.00 in0.0 mm 0.00 in0.0 mm 0.00 in0.0 mm
08:10 PM 93.7°F34.3°C 59.9°F15.5°C 33% 3.7 mph S6.0 kmh S 7.4 mph11.9 kmh 29.30 in992.2 mb 0.00 in0.0 mm 0.00 in0.0 mm 0.00 in0.0 mm
08:15 PM 93.5°F34.2°C 60.6°F15.9°C 34% 2.3 mph SSE3.7 kmh SSE 4.9 mph7.9 kmh 29.30 in992.2 mb 0.00 in0.0 mm 0.00 in0.0 mm 0.00 in0.0 mm
08:20 PM 93.3°F34.1°C 60.7°F15.9°C 34% 2.9 mph SE4.7 kmh SE 9.8 mph15.8 kmh 29.30 in992.2 mb 0.00 in0.0 mm 0.00 in0.0 mm 0.00 in0.0 mm
08:25 PM 93.0°F33.9°C 60.4°F15.8°C 34% 2.5 mph S4.0 kmh S 4.9 mph7.9 kmh 29.30 in992.2 mb 0.00 in0.0 mm 0.00 in0.0 mm 0.00 in0.0 mm
08:30 PM 92.8°F33.8°C 60.3°F15.7°C 34% 4.3 mph SSE6.9 kmh SSE 7.4 mph11.9 kmh 29.30 in992.2 mb 0.00 in0.0 mm 0.00 in0.0 mm 0.00 in0.0 mm
08:35 PM 92.7°F33.7°C 60.2°F15.7°C 34% 3.9 mph SSE6.3 kmh SSE 7.4 mph11.9 kmh 29.30 in992.2 mb 0.00 in0.0 mm 0.00 in0.0 mm 0.00 in0.0 mm
08:40 PM 92.5°F33.6°C 60.0°F15.6°C 34% 2.8 mph SSE4.5 kmh SSE 4.9 mph7.9 kmh 29.31 in992.6 mb 0.00 in0.0 mm 0.00 in0.0 mm 0.00 in0.0 mm
08:45 PM 92.4°F33.6°C 60.7°F15.9°C 35% 3.9 mph SSE6.3 kmh SSE 7.4 mph11.9 kmh 29.31 in992.6 mb 0.00 in0.0 mm 0.00 in0.0 mm 0.00 in0.0 mm
08:50 PM 92.2°F33.4°C 60.6°F15.9°C 35% 4.1 mph S6.6 kmh S 7.4 mph11.9 kmh 29.31 in992.6 mb 0.00 in0.0 mm 0.00 in0.0 mm 0.00 in0.0 mm
08:55 PM 92.1°F33.4°C 61.0°F16.1°C 36% 3.9 mph SSE6.3 kmh SSE 7.4 mph11.9 kmh 29.32 in992.9 mb 0.00 in0.0 mm 0.00 in0.0 mm 0.00 in0.0 mm
09:00 PM 92.0°F33.3°C 61.2°F16.2°C 36% 3.1 mph SSE5.0 kmh SSE 4.9 mph7.9 kmh 29.32 in992.9 mb 0.00 in0.0 mm 0.00 in0.0 mm 0.00 in0.0 mm
09:05 PM 91.9°F33.3°C 61.8°F16.6°C 37% 2.0 mph S3.2 kmh S 4.9 mph7.9 kmh 29.32 in992.9 mb 0.00 in0.0 mm 0.00 in0.0 mm 0.00 in0.0 mm
09:10 PM 91.7°F33.2°C 62.3°F16.8°C 38% 4.0 mph SSE6.4 kmh SSE 7.4 mph11.9 kmh 29.32 in992.9 mb 0.00 in0.0 mm 0.00 in0.0 mm 0.00 in0.0 mm
09:15 PM 91.5°F33.1°C 62.3°F16.8°C 38% 3.9 mph SSE6.3 kmh SSE 7.4 mph11.9 kmh 29.33 in993.2 mb 0.00 in0.0 mm 0.00 in0.0 mm 0.00 in0.0 mm
09:20 PM 91.3°F32.9°C 62.1°F16.7°C 38% 4.2 mph SE6.8 kmh SE 4.9 mph7.9 kmh 29.32 in992.9 mb 0.00 in0.0 mm 0.00 in0.0 mm 0.00 in0.0 mm
09:25 PM 91.1°F32.8°C 61.9°F16.6°C 38% 3.2 mph S5.1 kmh S 7.4 mph11.9 kmh 29.33 in993.2 mb 0.00 in0.0 mm 0.00 in0.0 mm 0.00 in0.0 mm
09:30 PM 91.0°F32.8°C 61.8°F16.6°C 38% 5.2 mph SSE8.4 kmh SSE 9.8 mph15.8 kmh 29.33 in993.2 mb 0.00 in0.0 mm 0.00 in0.0 mm 0.00 in0.0 mm
09:35 PM 90.9°F32.7°C 61.7°F16.5°C 38% 2.3 mph S3.7 kmh S 7.4 mph11.9 kmh 29.34 in993.6 mb 0.00 in0.0 mm 0.00 in0.0 mm 0.00 in0.0 mm
09:40 PM 90.8°F32.7°C 61.7°F16.5°C 38% 4.3 mph S6.9 kmh S 7.4 mph11.9 kmh 29.34 in993.6 mb 0.00 in0.0 mm 0.00 in0.0 mm 0.00 in0.0 mm
09:45 PM 90.7°F32.6°C 61.6°F16.4°C 38% 3.9 mph SSE6.3 kmh SSE 9.8 mph15.8 kmh 29.34 in993.6 mb 0.00 in0.0 mm 0.00 in0.0 mm 0.00 in0.0 mm
09:50 PM 90.6°F32.6°C 61.5°F16.4°C 38% 3.5 mph S5.6 kmh S 7.4 mph11.9 kmh 29.34 in993.6 mb 0.00 in0.0 mm 0.00 in0.0 mm 0.00 in0.0 mm
09:55 PM 90.5°F32.5°C 61.4°F16.3°C 38% 3.4 mph SSE5.5 kmh SSE 4.9 mph7.9 kmh 29.34 in993.6 mb 0.00 in0.0 mm 0.00 in0.0 mm 0.00 in0.0 mm
10:00 PM 90.4°F32.4°C 61.3°F16.3°C 38% 4.4 mph S7.1 kmh S 9.8 mph15.8 kmh 29.34 in993.6 mb 0.00 in0.0 mm 0.00 in0.0 mm 0.00 in0.0 mm
10:05 PM 90.3°F32.4°C 61.2°F16.2°C 38% 4.5 mph SSE7.2 kmh SSE 7.4 mph11.9 kmh 29.34 in993.6 mb 0.00 in0.0 mm 0.00 in0.0 mm 0.00 in0.0 mm
10:10 PM 90.2°F32.3°C 61.6°F16.4°C 39% 5.4 mph S8.7 kmh S 9.8 mph15.8 kmh 29.34 in993.6 mb 0.00 in0.0 mm 0.00 in0.0 mm 0.00 in0.0 mm
10:15 PM 90.1°F32.3°C 61.8°F16.6°C 39% 4.5 mph SSE7.2 kmh SSE 9.8 mph15.8 kmh 29.34 in993.6 mb 0.00 in0.0 mm 0.00 in0.0 mm 0.00 in0.0 mm
10:20 PM 90.1°F32.3°C 61.7°F16.5°C 39% 3.7 mph SE6.0 kmh SE 7.4 mph11.9 kmh 29.34 in993.6 mb 0.00 in0.0 mm 0.00 in0.0 mm 0.00 in0.0 mm
10:25 PM 90.0°F32.2°C 62.0°F16.7°C 40% 4.6 mph SSE7.4 kmh SSE 7.4 mph11.9 kmh 29.35 in993.9 mb 0.00 in0.0 mm 0.00 in0.0 mm 0.00 in0.0 mm
10:30 PM 90.0°F32.2°C 62.4°F16.9°C 40% 3.7 mph S6.0 kmh S 7.4 mph11.9 kmh 29.35 in993.9 mb 0.00 in0.0 mm 0.00 in0.0 mm 0.00 in0.0 mm
10:35 PM 89.9°F32.2°C 62.3°F16.8°C 40% 3.9 mph SSE6.3 kmh SSE 7.4 mph11.9 kmh 29.35 in993.9 mb 0.00 in0.0 mm 0.00 in0.0 mm 0.00 in0.0 mm
10:40 PM 89.8°F32.1°C 63.0°F17.2°C 41% 4.3 mph SSE6.9 kmh SSE 7.4 mph11.9 kmh 29.36 in994.2 mb 0.00 in0.0 mm 0.00 in0.0 mm 0.00 in0.0 mm
10:45 PM 89.7°F32.1°C 63.5°F17.5°C 42% 3.7 mph S6.0 kmh S 7.4 mph11.9 kmh 29.36 in994.2 mb 0.00 in0.0 mm 0.00 in0.0 mm 0.00 in0.0 mm
10:50 PM 89.5°F31.9°C 63.6°F17.6°C 42% 4.8 mph SSE7.7 kmh SSE 9.8 mph15.8 kmh 29.36 in994.2 mb 0.00 in0.0 mm 0.00 in0.0 mm 0.00 in0.0 mm
10:55 PM 89.4°F31.9°C 63.9°F17.7°C 43% 4.3 mph SSE6.9 kmh SSE 7.4 mph11.9 kmh 29.36 in994.2 mb 0.00 in0.0 mm 0.00 in0.0 mm 0.00 in0.0 mm
11:00 PM 89.3°F31.8°C 64.2°F17.9°C 44% 5.0 mph SSE8.0 kmh SSE 9.8 mph15.8 kmh 29.36 in994.2 mb 0.00 in0.0 mm 0.00 in0.0 mm 0.00 in0.0 mm
11:05 PM 89.2°F31.8°C 64.4°F18.0°C 44% 5.0 mph S8.0 kmh S 9.8 mph15.8 kmh 29.36 in994.2 mb 0.00 in0.0 mm 0.00 in0.0 mm 0.00 in0.0 mm
11:10 PM 89.1°F31.7°C 64.4°F18.0°C 44% 5.0 mph SSE8.0 kmh SSE 7.4 mph11.9 kmh 29.36 in994.2 mb 0.00 in0.0 mm 0.00 in0.0 mm 0.00 in0.0 mm
11:15 PM 89.0°F31.7°C 64.9°F18.3°C 45% 3.3 mph SE5.3 kmh SE 7.4 mph11.9 kmh 29.36 in994.2 mb 0.00 in0.0 mm 0.00 in0.0 mm 0.00 in0.0 mm
11:20 PM 88.8°F31.6°C 64.8°F18.2°C 45% 3.2 mph SSE5.1 kmh SSE 7.4 mph11.9 kmh 29.36 in994.2 mb 0.00 in0.0 mm 0.00 in0.0 mm 0.00 in0.0 mm
11:25 PM 88.6°F31.4°C 65.3°F18.5°C 46% 3.7 mph SSE6.0 kmh SSE 9.8 mph15.8 kmh 29.36 in994.2 mb 0.00 in0.0 mm 0.00 in0.0 mm 0.00 in0.0 mm
11:30 PM 88.3°F31.3°C 66.4°F19.1°C 48% 3.7 mph S6.0 kmh S 7.4 mph11.9 kmh 29.36 in994.2 mb 0.00 in0.0 mm 0.00 in0.0 mm 0.00 in0.0 mm
11:35 PM 88.1°F31.2°C 66.9°F19.4°C 50% 5.2 mph ESE8.4 kmh ESE 9.8 mph15.8 kmh 29.37 in994.6 mb 0.00 in0.0 mm 0.00 in0.0 mm 0.00 in0.0 mm
11:40 PM 87.8°F31.0°C 66.8°F19.3°C 50% 4.9 mph SE7.9 kmh SE 9.8 mph15.8 kmh 29.36 in994.2 mb 0.00 in0.0 mm 0.00 in0.0 mm 0.00 in0.0 mm
11:45 PM 87.4°F30.8°C 66.5°F19.2°C 50% 4.8 mph SSE7.7 kmh SSE 7.4 mph11.9 kmh 29.37 in994.6 mb 0.00 in0.0 mm 0.00 in0.0 mm 0.00 in0.0 mm
11:50 PM 87.1°F30.6°C 66.6°F19.2°C 51% 4.7 mph SSE7.6 kmh SSE 7.4 mph11.9 kmh 29.36 in994.2 mb 0.00 in0.0 mm 0.00 in0.0 mm 0.00 in0.0 mm
11:55 PM 86.8°F30.4°C 66.4°F19.1°C 51% 6.3 mph SE10.1 kmh SE 12.3 mph19.8 kmh 29.36 in994.2 mb 0.00 in0.0 mm 0.00 in0.0 mm 0.00 in0.0 mm